createdAt,value
2019-02-22T00:00:59.695Z,98237.16
2019-02-22T00:05:54.280Z,98239.42
2019-02-22T00:10:48.881Z,98252.46
2019-02-22T00:15:43.482Z,98257.19
2019-02-22T00:20:38.079Z,98259.64
2019-02-22T00:25:32.673Z,98264.19
2019-02-22T00:30:27.243Z,98266.33
2019-02-22T00:35:21.913Z,98276.92
2019-02-22T00:40:16.511Z,98278.55
2019-02-22T00:45:11.177Z,98286.20
2019-02-22T00:50:06.674Z,98287.00
2019-02-22T00:55:01.281Z,98287.67
2019-02-22T00:59:55.845Z,98290.58
2019-02-22T01:04:50.451Z,98297.12
2019-02-22T01:09:45.044Z,98296.63
2019-02-22T01:14:39.625Z,98302.31
2019-02-22T01:19:34.207Z,98299.89
2019-02-22T01:24:28.806Z,98303.31
2019-02-22T01:29:23.403Z,98299.72
2019-02-22T01:34:18.001Z,98300.06
2019-02-22T01:39:12.663Z,98294.17
2019-02-22T01:44:10.286Z,98296.48
2019-02-22T01:49:04.881Z,98295.17
2019-02-22T01:53:59.458Z,98305.59
2019-02-22T01:58:54.036Z,98302.66
2019-02-22T02:03:48.628Z,98290.93
2019-02-22T02:08:43.218Z,98305.73
2019-02-22T02:13:37.809Z,98302.80
2019-02-22T02:18:32.406Z,98307.05
2019-02-22T02:23:26.996Z,98315.06
2019-02-22T02:28:21.598Z,98311.12
2019-02-22T02:33:16.189Z,98293.22
2019-02-22T02:38:10.782Z,98296.96
2019-02-22T02:43:05.439Z,98290.77
2019-02-22T02:48:00.025Z,98281.30
2019-02-22T02:52:54.619Z,98266.30
2019-02-22T02:57:49.211Z,98284.23
2019-02-22T03:02:43.804Z,98280.48
2019-02-22T03:07:40.032Z,98278.35
2019-02-22T03:12:34.623Z,98273.77
2019-02-22T03:17:29.225Z,98280.13
2019-02-22T03:22:23.818Z,98276.88
2019-02-22T03:27:18.414Z,98285.37
2019-02-22T03:32:13.011Z,98290.42
2019-02-22T03:37:07.596Z,98296.78
2019-02-22T03:42:02.206Z,98306.41
2019-02-22T03:46:56.808Z,98315.05
2019-02-22T03:51:51.415Z,98317.48
2019-02-22T03:56:46.078Z,98323.68
2019-02-22T04:01:40.671Z,98327.11
2019-02-22T04:06:35.273Z,98333.61
2019-02-22T04:11:29.849Z,98327.94
2019-02-22T04:16:24.451Z,98329.70
2019-02-22T04:21:19.041Z,98325.00
2019-02-22T04:26:13.623Z,98326.30
2019-02-22T04:31:08.210Z,98332.66
2019-02-22T04:36:02.804Z,98339.34
2019-02-22T04:40:57.389Z,98342.42
2019-02-22T04:45:51.990Z,98342.91
2019-02-22T04:50:46.736Z,98327.61
2019-02-22T04:55:41.350Z,98324.65
2019-02-22T05:00:35.917Z,98322.53
2019-02-22T05:05:30.602Z,98322.06
2019-02-22T05:10:25.183Z,98318.78
2019-02-22T05:15:19.840Z,98318.64
2019-02-22T05:20:14.434Z,98324.17
2019-02-22T05:25:09.147Z,98316.84
2019-02-22T05:30:03.803Z,98318.14
2019-02-22T05:34:58.406Z,98327.59
2019-02-22T05:39:53.010Z,98331.34
2019-02-22T05:44:47.583Z,98336.88
2019-02-22T05:49:42.176Z,98348.15
2019-02-22T05:54:36.838Z,98356.47
2019-02-22T05:59:31.442Z,98359.22
2019-02-22T06:04:26.034Z,98361.00
2019-02-22T06:09:20.632Z,98369.80
2019-02-22T06:14:15.214Z,98366.25
2019-02-22T06:19:09.807Z,98370.79
2019-02-22T06:24:04.472Z,98376.34
2019-02-22T06:28:59.049Z,98374.20
2019-02-22T06:33:53.644Z,98374.85
2019-02-22T06:38:48.428Z,98377.64
2019-02-22T06:43:42.987Z,98381.39
2019-02-22T06:48:37.581Z,98392.80
2019-02-22T06:53:32.182Z,98407.66
2019-02-22T06:58:26.762Z,98406.36
2019-02-22T07:03:22.429Z,98412.20
2019-02-22T07:08:22.869Z,98425.59
2019-02-22T07:13:17.726Z,98437.69
2019-02-22T07:18:13.687Z,98423.66
2019-02-22T07:23:08.298Z,98417.28
2019-02-22T07:28:03.460Z,98403.38
2019-02-22T07:33:08.257Z,98408.25
2019-02-22T07:38:04.656Z,98401.84
2019-02-22T07:43:08.101Z,98402.64
2019-02-22T07:48:00.070Z,98406.22
2019-02-22T07:52:56.555Z,98411.22
2019-02-22T07:57:52.825Z,98422.19
2019-02-22T08:02:47.471Z,98430.98
2019-02-22T08:07:45.427Z,98441.09
2019-02-22T08:12:40.266Z,98438.16
2019-02-22T08:17:34.881Z,98448.22
2019-02-22T08:22:29.465Z,98444.30
2019-02-22T08:27:24.096Z,98445.52
2019-02-22T08:32:25.275Z,98454.80
2019-02-22T08:37:20.168Z,98454.94
2019-02-22T08:42:15.096Z,98452.56
2019-02-22T08:47:09.729Z,98455.75
2019-02-22T08:52:04.439Z,98455.89
2019-02-22T08:57:03.215Z,98463.02
2019-02-22T09:02:02.908Z,98469.12
2019-02-22T09:06:57.797Z,98474.53
2019-02-22T09:11:52.383Z,98489.25
2019-02-22T09:16:47.065Z,98493.86
2019-02-22T09:21:41.660Z,98500.80
2019-02-22T09:26:37.418Z,98498.92
2019-02-22T09:31:32.061Z,98500.08
2019-02-22T09:36:26.791Z,98493.78
2019-02-22T09:41:21.391Z,98504.67
2019-02-22T09:46:16.260Z,98505.30
2019-02-22T09:51:11.137Z,98508.34
2019-02-22T09:56:05.746Z,98503.17
2019-02-22T10:01:00.340Z,98498.19
2019-02-22T10:05:54.963Z,98504.84
2019-02-22T10:10:49.786Z,98511.11
2019-02-22T10:15:44.520Z,98515.64
2019-02-22T10:20:39.130Z,98505.96
2019-02-22T10:25:34.490Z,98501.05
2019-02-22T10:30:29.391Z,98495.83
2019-02-22T10:35:23.997Z,98494.36
2019-02-22T10:40:18.695Z,98490.79
2019-02-22T10:45:13.422Z,98495.45
2019-02-22T10:50:09.930Z,98497.34
2019-02-22T10:55:07.382Z,98506.95
2019-02-22T11:00:02.382Z,98501.19
2019-02-22T11:04:57.184Z,98491.89
2019-02-22T11:09:51.906Z,98494.66
2019-02-22T11:14:46.507Z,98491.89
2019-02-22T11:19:41.797Z,98494.41
2019-02-22T11:24:36.387Z,98494.69
2019-02-22T11:29:30.985Z,98483.42
2019-02-22T11:34:25.669Z,98481.30
2019-02-22T11:39:22.115Z,98473.72
2019-02-22T11:44:16.734Z,98461.33
2019-02-22T11:49:11.361Z,98462.34
2019-02-22T11:54:05.978Z,98452.11
2019-02-22T11:59:00.558Z,98464.81
2019-02-22T12:03:55.178Z,98469.13
2019-02-22T12:08:49.777Z,98464.18
2019-02-22T12:13:44.431Z,98468.09
2019-02-22T12:18:39.104Z,98461.84
2019-02-22T12:23:33.697Z,98462.46
2019-02-22T12:28:28.302Z,98453.43
2019-02-22T12:33:22.936Z,98459.06
2019-02-22T12:38:19.458Z,98454.55
2019-02-22T12:43:14.001Z,98456.31
2019-02-22T12:48:08.643Z,98448.63
2019-02-22T12:53:03.225Z,98461.90
2019-02-22T12:57:57.877Z,98462.02
2019-02-22T13:03:01.513Z,98460.72
2019-02-22T13:07:52.426Z,98465.23
2019-02-22T13:12:46.159Z,98462.21
2019-02-22T13:17:40.908Z,98465.43
2019-02-22T13:22:35.595Z,98459.02
2019-02-22T13:27:36.266Z,98457.80
2019-02-22T13:32:32.402Z,98453.51
2019-02-22T13:37:27.054Z,98463.53
2019-02-22T13:42:21.728Z,98476.41
2019-02-22T13:47:16.823Z,98492.03
2019-02-22T13:52:11.635Z,98499.05
2019-02-22T13:57:06.301Z,98500.25
2019-02-22T14:02:00.892Z,98500.77
2019-02-22T14:06:55.539Z,98489.12
2019-02-22T14:11:50.196Z,98490.82
2019-02-22T14:16:44.801Z,98496.64
2019-02-22T14:21:39.413Z,98494.16
2019-02-22T14:26:34.021Z,98503.86
2019-02-22T14:31:28.649Z,98503.99
2019-02-22T14:36:23.364Z,98507.42
2019-02-22T14:41:17.909Z,98507.48
2019-02-22T14:46:12.591Z,98500.13
2019-02-22T14:51:07.651Z,98503.50
2019-02-22T14:56:02.336Z,98507.87
2019-02-22T15:00:57.151Z,98520.11
2019-02-22T15:05:51.773Z,98522.59
2019-02-22T15:10:48.125Z,98528.14
2019-02-22T15:16:03.639Z,98531.52
2019-02-22T15:20:56.995Z,98529.41
2019-02-22T15:25:51.770Z,98531.11
2019-02-22T15:30:46.432Z,98532.59
2019-02-22T15:35:41.121Z,98533.72
2019-02-22T15:40:35.714Z,98535.73
2019-02-22T15:45:30.428Z,98536.95
2019-02-22T15:50:25.136Z,98527.95
2019-02-22T15:55:19.696Z,98535.05
2019-02-22T16:00:31.100Z,98540.59
2019-02-22T16:05:30.300Z,98546.48
2019-02-22T16:10:25.187Z,98555.17
2019-02-22T16:15:20.129Z,98560.83
2019-02-22T16:20:15.087Z,98555.32
2019-02-22T16:25:19.143Z,98560.52
2019-02-22T16:30:12.847Z,98560.20
2019-02-22T16:35:07.766Z,98557.19
2019-02-22T16:40:02.359Z,98560.87
2019-02-22T16:44:56.953Z,98567.71
2019-02-22T16:49:51.565Z,98564.47
2019-02-22T16:54:46.166Z,98567.56
2019-02-22T16:59:40.768Z,98575.12
2019-02-22T17:04:35.370Z,98562.80
2019-02-22T17:09:30.014Z,98576.56
2019-02-22T17:14:24.614Z,98594.44
2019-02-22T17:19:19.202Z,98593.07
2019-02-22T17:24:13.801Z,98595.73
2019-02-22T17:29:08.398Z,98602.68
2019-02-22T17:34:02.980Z,98606.70
2019-02-22T17:38:57.561Z,98615.86
2019-02-22T17:43:52.151Z,98607.89
2019-02-22T17:48:47.086Z,98611.66
2019-02-22T17:53:41.845Z,98629.03
2019-02-22T17:58:36.442Z,98630.52
2019-02-22T18:03:31.034Z,98626.27
2019-02-22T18:08:25.622Z,98627.09
2019-02-22T18:13:20.215Z,98630.69
2019-02-22T18:18:16.099Z,98626.63
2019-02-22T18:23:10.680Z,98625.84
2019-02-22T18:28:05.265Z,98634.68
2019-02-22T18:32:59.855Z,98627.20
2019-02-22T18:37:54.440Z,98630.00
2019-02-22T18:42:49.062Z,98631.96
2019-02-22T18:47:43.660Z,98635.53
2019-02-22T18:52:38.386Z,98647.95
2019-02-22T18:57:33.002Z,98646.17
2019-02-22T19:02:27.589Z,98638.97
2019-02-22T19:07:22.190Z,98639.15
2019-02-22T19:12:16.782Z,98638.66
2019-02-22T19:17:11.380Z,98637.03
2019-02-22T19:22:05.967Z,98637.95
2019-02-22T19:27:00.550Z,98634.02
2019-02-22T19:31:55.149Z,98642.67
2019-02-22T19:36:49.748Z,98650.15
2019-02-22T19:41:44.331Z,98650.61
2019-02-22T19:46:38.925Z,98658.92
2019-02-22T19:51:33.512Z,98646.46
2019-02-22T19:56:28.121Z,98649.45
2019-02-22T20:01:22.730Z,98642.42
2019-02-22T20:06:17.336Z,98641.45
2019-02-22T20:11:11.928Z,98645.49
2019-02-22T20:16:06.526Z,98651.69
2019-02-22T20:21:01.119Z,98651.64
2019-02-22T20:25:55.712Z,98649.66
2019-02-22T20:30:50.316Z,98647.59
2019-02-22T20:35:44.926Z,98648.01
2019-02-22T20:40:39.586Z,98648.70
2019-02-22T20:45:34.252Z,98647.70
2019-02-22T20:50:28.837Z,98649.31
2019-02-22T20:55:23.434Z,98652.26
2019-02-22T21:00:27.280Z,98652.12
2019-02-22T21:05:21.925Z,98649.17
2019-02-22T21:10:21.848Z,98654.53
2019-02-22T21:15:16.512Z,98651.45
2019-02-22T21:20:20.569Z,98649.98
2019-02-22T21:25:15.311Z,98655.03
2019-02-22T21:30:14.348Z,98657.31
2019-02-22T21:35:10.838Z,98657.95
2019-02-22T21:40:08.039Z,98650.95
2019-02-22T21:45:02.879Z,98644.56
2019-02-22T21:49:57.479Z,98643.25
2019-02-22T21:54:52.059Z,98641.95
2019-02-22T21:59:46.662Z,98648.41
2019-02-22T22:04:41.238Z,98654.08
2019-02-22T22:09:35.846Z,98653.69
2019-02-22T22:14:30.468Z,98654.94
2019-02-22T22:19:25.047Z,98655.96
2019-02-22T22:24:19.643Z,98646.45
2019-02-22T22:29:14.247Z,98655.00
2019-02-22T22:34:08.848Z,98659.30
2019-02-22T22:39:03.931Z,98657.64
2019-02-22T22:43:58.540Z,98661.48
2019-02-22T22:48:53.135Z,98659.53
2019-02-22T22:53:47.729Z,98660.49
2019-02-22T22:58:42.303Z,98655.19
2019-02-22T23:03:36.974Z,98652.11
2019-02-22T23:08:31.565Z,98653.67
2019-02-22T23:13:26.430Z,98651.73
2019-02-22T23:18:21.103Z,98655.68
2019-02-22T23:23:15.671Z,98668.06
2019-02-22T23:28:10.268Z,98671.53
2019-02-22T23:33:04.992Z,98670.22
2019-02-22T23:37:59.619Z,98677.12
2019-02-22T23:42:54.282Z,98677.56
2019-02-22T23:47:48.853Z,98680.89
2019-02-22T23:52:43.455Z,98676.16
2019-02-22T23:57:38.041Z,98674.57
